KEKN

Elkins-Randolph Co-Jennings Randolph Field Airport

Elkins, West Virginia, USA
METAR KEKN 141322Z AUTO 00000KT 10SM SCT004 16/14 A3009 RMK AO2 T01610139 TSNO
Observed Flight Rules
Aug-14 @ 13:22 UTC (19 minutes ago) Visual Flight Rules
Visibility Clouds
10 miles
  • Scattered at 400' AGL
Temperatures Readings
Current 16°C / 61°F
Dewpoint 14°C / 57°F
Humidity 88%
Altimeter 30.09" Hg
Pressure 1019 hPa
Elevation 603
METAR KEKN 141322Z AUTO 00000KT 10SM SCT004 16/14 A3009 RMK AO2 T01610139 TSNO
Observed Flight Rules
Aug-14 @ 13:22 UTC
(19 minutes ago)
VFR
Clouds
  • Scattered at 400' AGL
Temperature Dewpoint
16°C / 61°F 14°C / 57°F
Humidity Altimeter Pressure
88% 30.09" Hg 1019 hPa